Time,TemperatureF,DewpointF,PressureIn,WindDirection,WindDirectionDegrees,WindSpeedMPH,WindSpeedGustMPH,Humidity,HourlyPrecipIn,Conditions,Clouds,dailyrainin,SoftwareType,DateUTC
2013-07-06 07:30:00,66.7,66.7,30.15,North,11,0.0,0.0,100,0.00,,---,0.00,VWS V14.00,2013-07-06 11:30:00,
2013-07-06 07:48:00,67.2,67.2,30.16,North,11,0.0,0.0,100,0.00,,---,0.00,VWS V14.00,2013-07-06 11:48:00,
2013-07-06 07:49:00,67.3,67.3,30.16,North,11,0.0,0.0,100,0.00,,---,0.00,VWS V14.00,2013-07-06 11:49:00,
2013-07-06 07:51:00,67.5,67.5,30.16,North,11,0.0,0.0,100,0.00,,---,0.00,VWS V14.00,2013-07-06 11:51:00,
2013-07-06 07:52:00,67.6,67.6,30.16,North,11,0.0,0.0,100,0.00,,---,0.00,VWS V14.00,2013-07-06 11:52:00,
2013-07-06 07:53:00,67.7,67.7,30.16,North,11,0.0,0.0,100,0.00,,---,0.00,VWS V14.00,2013-07-06 11:53:00,
2013-07-06 07:58:00,68.0,68.0,30.16,North,11,0.0,0.0,100,0.00,,---,0.00,VWS V14.00,2013-07-06 11:58:00,
2013-07-06 08:03:00,68.4,68.4,30.16,North,11,0.0,0.0,100,0.00,,---,0.00,VWS V14.00,2013-07-06 12:03:00,
2013-07-06 08:09:00,68.7,68.7,30.16,NNE,25,0.0,0.0,100,0.00,,---,0.00,VWS V14.00,2013-07-06 12:09:00,
2013-07-06 08:14:00,69.0,69.0,30.16,NNE,25,0.0,0.0,100,0.00,,---,0.00,VWS V14.00,2013-07-06 12:14:00,
2013-07-06 08:19:00,69.4,69.4,30.16,NNE,25,0.0,0.0,100,0.00,,---,0.00,VWS V14.00,2013-07-06 12:19:00,
2013-07-06 08:24:00,69.9,69.9,30.16,NNE,25,0.0,0.0,100,0.00,,---,0.00,VWS V14.00,2013-07-06 12:24:00,
2013-07-06 08:29:00,70.4,70.4,30.16,NNE,25,0.0,0.0,100,0.00,,---,0.00,VWS V14.00,2013-07-06 12:29:00,
2013-07-06 08:34:00,71.0,71.0,30.16,NNE,25,0.0,0.0,100,0.00,,---,0.00,VWS V14.00,2013-07-06 12:34:00,
2013-07-06 08:43:00,71.2,71.2,30.16,South,171,0.0,0.0,100,0.00,,---,0.00,VWS V14.00,2013-07-06 12:43:00,
2013-07-06 08:48:00,71.3,71.3,30.16,SSE,167,0.0,0.0,100,0.00,,---,0.00,VWS V14.00,2013-07-06 12:48:00,
2013-07-06 08:53:00,71.4,71.4,30.17,SE,141,0.0,0.0,100,0.00,,---,0.00,VWS V14.00,2013-07-06 12:53:00,
2013-07-06 08:58:00,71.7,71.7,30.17,SE,142,0.0,1.0,100,0.00,,---,0.00,VWS V14.00,2013-07-06 12:58:00,
2013-07-06 09:04:00,72.1,72.1,30.17,SE,141,0.0,0.0,100,0.00,,---,0.00,VWS V14.00,2013-07-06 13:04:00,
2013-07-06 09:09:00,72.5,72.5,30.17,SE,141,0.0,0.0,100,0.00,,---,0.00,VWS V14.00,2013-07-06 13:09:00,
2013-07-06 09:14:00,72.8,72.8,30.17,SE,141,1.0,1.0,100,0.00,,---,0.00,VWS V14.00,2013-07-06 13:14:00,
2013-07-06 09:19:00,72.9,72.9,30.17,SE,141,0.0,0.0,100,0.00,,---,0.00,VWS V14.00,2013-07-06 13:19:00,
2013-07-06 09:24:00,73.3,73.3,30.17,SE,141,0.0,0.0,100,0.00,,---,0.00,VWS V14.00,2013-07-06 13:24:00,
2013-07-06 09:29:00,73.5,73.5,30.17,SE,141,0.0,0.0,100,0.00,,---,0.00,VWS V14.00,2013-07-06 13:29:00,
2013-07-06 09:34:00,73.8,73.8,30.17,SE,141,0.0,1.0,100,0.00,,---,0.00,VWS V14.00,2013-07-06 13:34:00,
2013-07-06 09:39:00,74.1,74.1,30.17,SE,141,0.0,0.0,100,0.00,,---,0.00,VWS V14.00,2013-07-06 13:39:00,
2013-07-06 09:45:00,74.5,74.5,30.17,SE,141,0.0,0.0,100,0.00,,---,0.00,VWS V14.00,2013-07-06 13:45:00,
2013-07-06 09:50:00,74.8,74.8,30.17,SE,139,0.0,0.0,100,0.00,,---,0.00,VWS V14.00,2013-07-06 13:50:00,
2013-07-06 09:55:00,75.0,75.0,30.17,SE,139,0.0,0.0,100,0.00,,---,0.00,VWS V14.00,2013-07-06 13:55:00,
2013-07-06 10:00:00,75.2,75.2,30.17,SE,139,0.0,0.0,100,0.00,,---,0.00,VWS V14.00,2013-07-06 14:00:00,
2013-07-06 10:05:00,75.1,75.1,30.16,SE,139,0.0,0.0,100,0.00,,---,0.00,VWS V14.00,2013-07-06 14:05:00,
2013-07-06 10:10:00,75.2,75.2,30.16,SE,139,0.0,0.0,100,0.00,,---,0.00,VWS V14.00,2013-07-06 14:10:00,
2013-07-06 10:16:00,75.6,73.1,30.16,SE,141,0.0,0.0,92,0.00,,---,0.00,VWS V14.00,2013-07-06 14:16:00,
2013-07-06 10:21:00,75.7,62.7,30.16,SE,141,0.0,0.0,64,0.00,,---,0.00,VWS V14.00,2013-07-06 14:21:00,
2013-07-06 10:26:00,76.0,47.9,30.16,SE,140,0.0,0.0,37,0.00,,---,0.00,VWS V14.00,2013-07-06 14:26:00,
2013-07-06 10:31:00,76.5,32.5,30.16,SE,140,0.0,0.0,20,0.00,,---,0.00,VWS V14.00,2013-07-06 14:31:00,
2013-07-06 10:36:00,77.0,13.9,30.16,SE,140,1.0,1.0,9,0.00,,---,0.00,VWS V14.00,2013-07-06 14:36:00,
2013-07-06 10:41:00,77.4,0.0,30.16,East,99,0.0,0.0,0,0.00,,---,0.00,VWS V14.00,2013-07-06 14:41:00,
2013-07-06 10:47:00,77.7,77.7,30.16,SE,124,0.0,1.0,100,0.00,,---,0.00,VWS V14.00,2013-07-06 14:47:00,
2013-07-06 10:52:00,77.5,77.5,30.16,East,80,0.0,1.0,100,0.00,,---,0.00,VWS V14.00,2013-07-06 14:52:00,
2013-07-06 10:57:00,77.4,77.4,30.16,East,88,0.0,0.0,100,0.00,,---,0.00,VWS V14.00,2013-07-06 14:57:00,
2013-07-06 11:02:00,77.7,77.7,30.16,SW,215,0.0,0.0,100,0.00,,---,0.00,VWS V14.00,2013-07-06 15:02:00,
2013-07-06 11:07:00,77.8,77.8,30.16,SW,215,0.0,0.0,100,0.00,,---,0.00,VWS V14.00,2013-07-06 15:07:00,
2013-07-06 11:12:00,77.6,77.6,30.16,SE,137,0.0,0.0,100,0.00,,---,0.00,VWS V14.00,2013-07-06 15:12:00,
2013-07-06 11:18:00,77.6,77.6,30.16,SE,137,0.0,0.0,100,0.00,,---,0.00,VWS V14.00,2013-07-06 15:18:00,
2013-07-06 11:23:00,77.3,77.3,30.16,SSW,206,0.0,0.0,100,0.00,,---,0.00,VWS V14.00,2013-07-06 15:23:00,
2013-07-06 11:28:00,77.2,77.2,30.16,SSW,206,0.0,0.0,100,0.00,,---,0.00,VWS V14.00,2013-07-06 15:28:00,
2013-07-06 11:33:00,77.3,77.3,30.16,SSW,206,0.0,0.0,100,0.00,,---,0.00,VWS V14.00,2013-07-06 15:33:00,
2013-07-06 11:38:00,77.6,77.6,30.16,SW,220,0.0,0.0,100,0.00,,---,0.00,VWS V14.00,2013-07-06 15:38:00,
2013-07-06 11:43:00,77.7,77.7,30.16,SW,226,1.0,1.0,100,0.00,,---,0.00,VWS V14.00,2013-07-06 15:43:00,
2013-07-06 11:49:00,77.9,77.9,30.16,SSE,148,0.0,0.0,100,0.00,,---,0.00,VWS V14.00,2013-07-06 15:49:00,
2013-07-06 11:54:00,77.9,77.9,30.16,SE,133,0.0,2.0,100,0.00,,---,0.00,VWS V14.00,2013-07-06 15:54:00,
2013-07-06 11:59:00,77.9,77.9,30.16,SSW,197,1.0,1.0,100,0.00,,---,0.00,VWS V14.00,2013-07-06 15:59:00,
2013-07-06 12:06:00,78.1,78.1,30.16,SSW,199,1.0,3.0,100,0.00,,---,0.00,VWS V14.00,2013-07-06 16:06:00,
2013-07-06 12:11:00,78.1,78.1,30.16,SW,220,0.0,0.0,100,0.00,,---,0.00,VWS V14.00,2013-07-06 16:11:00,
2013-07-06 12:17:00,78.3,78.3,30.16,SSE,147,0.0,0.0,100,0.00,,---,0.00,VWS V14.00,2013-07-06 16:17:00,
2013-07-06 12:22:00,78.6,78.6,30.16,SSW,192,0.0,0.0,100,0.00,,---,0.00,VWS V14.00,2013-07-06 16:22:00,
2013-07-06 12:35:00,79.1,79.1,30.15,SE,134,4.0,4.0,100,0.00,,---,0.00,VWS V14.00,2013-07-06 16:35:00,
2013-07-06 12:40:00,78.8,78.8,30.15,SE,131,1.0,2.0,100,0.00,,---,0.00,VWS V14.00,2013-07-06 16:40:00,
2013-07-06 12:47:00,78.3,78.3,30.15,SW,223,0.0,0.0,100,0.00,,---,0.00,VWS V14.00,2013-07-06 16:47:00,
2013-07-06 12:52:00,78.6,78.6,30.15,SW,224,0.0,0.0,100,0.00,,---,0.00,VWS V14.00,2013-07-06 16:52:00,
2013-07-06 12:59:00,79.3,79.3,30.15,SW,222,0.0,0.0,100,0.00,,---,0.00,VWS V14.00,2013-07-06 16:59:00,
2013-07-06 13:05:00,79.3,78.4,30.14,SSW,200,2.0,2.0,97,0.00,,---,0.00,VWS V14.00,2013-07-06 17:05:00,
2013-07-06 13:10:00,79.5,77.9,30.14,SSW,213,0.0,2.0,95,0.00,,---,0.00,VWS V14.00,2013-07-06 17:10:00,
2013-07-06 13:16:00,79.4,76.9,30.14,South,177,0.0,2.0,92,0.00,,---,0.00,VWS V14.00,2013-07-06 17:16:00,
2013-07-06 13:21:00,79.3,77.4,30.14,SSW,211,0.0,0.0,94,0.00,,---,0.00,VWS V14.00,2013-07-06 17:21:00,
2013-07-06 13:26:00,79.2,77.3,30.14,SW,230,0.0,0.0,94,0.00,,---,0.00,VWS V14.00,2013-07-06 17:26:00,
2013-07-06 13:35:00,79.4,76.9,30.14,ESE,106,0.0,0.0,92,0.00,,---,0.00,VWS V14.00,2013-07-06 17:35:00,
2013-07-06 13:41:00,79.3,76.1,30.13,SSW,209,1.0,2.0,90,0.00,,---,0.00,VWS V14.00,2013-07-06 17:41:00,
2013-07-06 13:47:00,79.1,75.9,30.13,SSW,208,0.0,0.0,90,0.00,,---,0.00,VWS V14.00,2013-07-06 17:47:00,
2013-07-06 13:52:00,79.1,77.2,30.13,SE,127,1.0,1.0,94,0.00,,---,0.00,VWS V14.00,2013-07-06 17:52:00,
2013-07-06 13:59:00,79.3,76.8,30.13,SSW,210,0.0,0.0,92,0.00,,---,0.00,VWS V14.00,2013-07-06 17:59:00,
2013-07-06 14:05:00,79.4,76.6,30.13,SSE,147,2.0,3.0,91,0.00,,---,0.00,VWS V14.00,2013-07-06 18:05:00,
2013-07-06 14:13:00,79.5,75.6,30.12,SSW,205,1.0,1.0,88,0.00,,---,0.00,VWS V14.00,2013-07-06 18:13:00,
2013-07-06 14:20:00,80.0,74.7,30.12,SSW,194,0.0,0.0,84,0.00,,---,0.00,VWS V14.00,2013-07-06 18:20:00,
2013-07-06 14:26:00,80.0,74.7,30.12,SW,219,1.0,2.0,84,0.00,,---,0.00,VWS V14.00,2013-07-06 18:26:00,
2013-07-06 14:32:00,80.4,76.5,30.11,SE,124,0.0,0.0,88,0.00,,---,0.00,VWS V14.00,2013-07-06 18:32:00,
2013-07-06 14:41:00,80.6,73.5,30.11,South,191,0.0,0.0,79,0.00,,---,0.00,VWS V14.00,2013-07-06 18:41:00,
2013-07-06 14:48:00,80.5,73.0,30.10,SW,222,0.0,1.0,78,0.00,,---,0.00,VWS V14.00,2013-07-06 18:48:00,
2013-07-06 14:53:00,80.5,72.2,30.10,SSW,204,2.0,2.0,76,0.00,,---,0.00,VWS V14.00,2013-07-06 18:53:00,
2013-07-06 14:59:00,80.7,72.4,30.10,East,94,0.0,1.0,76,0.00,,---,0.00,VWS V14.00,2013-07-06 18:59:00,
2013-07-06 15:05:00,81.2,72.1,30.10,East,98,0.0,0.0,74,0.00,,---,0.00,VWS V14.00,2013-07-06 19:05:00,
2013-07-06 15:11:00,81.4,70.3,30.10,WSW,238,4.0,6.0,69,0.00,,---,0.00,VWS V14.00,2013-07-06 19:11:00,
2013-07-06 15:16:00,81.3,68.9,30.10,West,260,2.0,2.0,66,0.00,,---,0.00,VWS V14.00,2013-07-06 19:16:00,
2013-07-06 15:21:00,81.6,68.2,30.10,SE,137,2.0,5.0,64,0.00,,---,0.00,VWS V14.00,2013-07-06 19:21:00,
2013-07-06 15:29:00,81.9,67.1,30.10,ESE,119,1.0,1.0,61,0.00,,---,0.00,VWS V14.00,2013-07-06 19:29:00,
2013-07-06 15:36:00,81.7,65.0,30.10,WSW,258,2.0,2.0,57,0.00,,---,0.00,VWS V14.00,2013-07-06 19:36:00,
2013-07-06 15:41:00,81.2,64.5,30.10,SSE,153,0.0,2.0,57,0.00,,---,0.00,VWS V14.00,2013-07-06 19:41:00,
2013-07-06 15:47:00,80.6,66.8,30.10,WNW,301,0.0,3.0,63,0.00,,---,0.00,VWS V14.00,2013-07-06 19:47:00,
2013-07-06 15:53:00,79.7,67.8,30.10,NNW,347,0.0,0.0,67,0.00,,---,0.00,VWS V14.00,2013-07-06 19:53:00,
2013-07-06 16:00:00,79.2,71.8,30.10,SSW,195,3.0,3.0,78,0.00,,---,0.00,VWS V14.00,2013-07-06 20:00:00,
2013-07-06 16:05:00,77.9,69.7,30.10,SW,233,3.0,3.0,76,0.00,,---,0.00,VWS V14.00,2013-07-06 20:05:00,
2013-07-06 16:12:00,76.9,69.2,30.10,East,92,0.0,1.0,77,0.00,,---,0.00,VWS V14.00,2013-07-06 20:12:00,
2013-07-06 16:17:00,76.6,69.6,30.10,East,91,3.0,5.0,79,0.00,,---,0.00,VWS V14.00,2013-07-06 20:17:00,
2013-07-06 16:22:00,76.4,71.9,30.10,SW,236,0.0,0.0,86,0.00,,---,0.00,VWS V14.00,2013-07-06 20:22:00,
2013-07-06 16:29:00,76.5,75.6,30.10,WSW,237,0.0,0.0,97,0.00,,---,0.00,VWS V14.00,2013-07-06 20:29:00,
2013-07-06 16:34:00,76.4,76.4,30.10,East,90,0.0,0.0,100,0.00,,---,0.00,VWS V14.00,2013-07-06 20:34:00,
2013-07-06 16:39:00,76.3,76.3,30.10,SSE,155,6.0,6.0,100,0.00,,---,0.00,VWS V14.00,2013-07-06 20:39:00,
2013-07-06 16:45:00,75.9,75.9,30.10,ESE,105,2.0,3.0,100,0.00,,---,0.00,VWS V14.00,2013-07-06 20:45:00,
2013-07-06 16:51:00,75.6,75.6,30.10,NE,39,0.0,0.0,100,0.00,,---,0.00,VWS V14.00,2013-07-06 20:51:00,
2013-07-06 16:59:00,75.8,75.8,30.09,SW,221,0.0,0.0,100,0.00,,---,0.00,VWS V14.00,2013-07-06 20:59:00,
2013-07-06 17:04:00,75.9,75.9,30.09,SW,221,2.0,3.0,100,0.00,,---,0.00,VWS V14.00,2013-07-06 21:04:00,
2013-07-06 17:09:00,75.8,75.8,30.09,SSW,204,0.0,0.0,100,0.00,,---,0.00,VWS V14.00,2013-07-06 21:09:00,
2013-07-06 17:16:00,75.7,75.7,30.09,SSW,202,0.0,0.0,100,0.00,,---,0.00,VWS V14.00,2013-07-06 21:16:00,
2013-07-06 17:21:00,75.7,75.7,30.09,SSW,202,0.0,0.0,100,0.00,,---,0.00,VWS V14.00,2013-07-06 21:21:00,
2013-07-06 17:28:00,75.6,75.6,30.09,SSW,202,0.0,0.0,100,0.00,,---,0.00,VWS V14.00,2013-07-06 21:28:00,
2013-07-06 17:36:00,75.4,75.4,30.08,SSW,202,0.0,0.0,100,0.00,,---,0.00,VWS V14.00,2013-07-06 21:36:00,
2013-07-06 17:43:00,75.4,75.4,30.08,SSW,202,0.0,0.0,100,0.00,,---,0.00,VWS V14.00,2013-07-06 21:43:00,
2013-07-06 17:48:00,75.5,75.5,30.08,SSW,202,0.0,0.0,100,0.00,,---,0.00,VWS V14.00,2013-07-06 21:48:00,
2013-07-06 17:55:00,75.5,75.5,30.07,SSW,201,0.0,0.0,100,0.00,,---,0.00,VWS V14.00,2013-07-06 21:55:00,
2013-07-06 18:02:00,75.6,75.6,30.08,South,175,0.0,0.0,100,0.00,,---,0.00,VWS V14.00,2013-07-06 22:02:00,
2013-07-06 18:08:00,75.4,75.4,30.08,SSE,161,0.0,0.0,100,0.00,,---,0.00,VWS V14.00,2013-07-06 22:08:00,
2013-07-06 18:13:00,75.2,75.2,30.08,East,92,0.0,0.0,100,0.00,,---,0.00,VWS V14.00,2013-07-06 22:13:00,
2013-07-06 18:18:00,74.9,74.9,30.08,ESE,117,0.0,2.0,100,0.00,,---,0.00,VWS V14.00,2013-07-06 22:18:00,
2013-07-06 18:24:00,74.6,74.6,30.08,ESE,115,0.0,0.0,100,0.01,,---,0.01,VWS V14.00,2013-07-06 22:24:00,
2013-07-06 18:32:00,74.4,74.4,30.08,ESE,116,0.0,0.0,100,0.02,,---,0.02,VWS V14.00,2013-07-06 22:32:00,
2013-07-06 18:38:00,74.1,0.0,30.08,ESE,115,0.0,0.0,0,0.03,,---,0.03,VWS V14.00,2013-07-06 22:38:00,
2013-07-06 18:43:00,73.7,0.0,30.07,SSE,160,0.0,0.0,0,0.04,,---,0.05,VWS V14.00,2013-07-06 22:43:00,
2013-07-06 18:49:00,73.3,-6.3,30.07,SSE,160,0.0,0.0,4,0.06,,---,0.07,VWS V14.00,2013-07-06 22:49:00,
2013-07-06 18:56:00,72.9,27.0,30.07,SSE,160,0.0,0.0,18,0.08,,---,0.10,VWS V14.00,2013-07-06 22:56:00,
2013-07-06 19:02:00,72.8,36.9,30.07,SSE,160,0.0,0.0,27,0.08,,---,0.11,VWS V14.00,2013-07-06 23:02:00,
2013-07-06 19:07:00,72.7,41.2,30.07,SSE,160,0.0,0.0,32,0.08,,---,0.12,VWS V14.00,2013-07-06 23:07:00,
2013-07-06 19:15:00,72.6,46.2,30.06,SSE,160,0.0,0.0,39,0.08,,---,0.13,VWS V14.00,2013-07-06 23:15:00,
2013-07-06 19:24:00,72.4,52.2,30.06,SSE,160,0.0,0.0,49,0.08,,---,0.14,VWS V14.00,2013-07-06 23:24:00,
2013-07-06 19:29:00,72.4,54.8,30.06,SSE,160,0.0,0.0,54,0.07,,---,0.14,VWS V14.00,2013-07-06 23:29:00,
2013-07-06 19:34:00,72.4,56.3,30.06,SSE,160,0.0,0.0,57,0.09,,---,0.16,VWS V14.00,2013-07-06 23:34:00,
2013-07-06 19:39:00,72.4,57.3,30.06,SSE,160,0.0,0.0,59,0.10,,---,0.18,VWS V14.00,2013-07-06 23:39:00,
2013-07-06 19:45:00,72.3,59.0,30.06,SSE,160,0.0,0.0,63,0.11,,---,0.20,VWS V14.00,2013-07-06 23:45:00,
2013-07-06 19:50:00,72.3,60.7,30.05,SSE,160,0.0,0.0,67,0.11,,---,0.21,VWS V14.00,2013-07-06 23:50:00,
2013-07-06 20:00:00,72.1,63.8,30.05,SSE,160,0.0,0.0,75,0.11,,---,0.23,VWS V14.00,2013-07-07 00:00:00,
2013-07-06 20:06:00,72.0,66.2,30.05,SSE,159,0.0,0.0,82,0.11,,---,0.24,VWS V14.00,2013-07-07 00:06:00,
2013-07-06 20:12:00,71.9,67.5,30.05,SSE,159,0.0,0.0,86,0.10,,---,0.24,VWS V14.00,2013-07-07 00:12:00,
2013-07-06 20:17:00,71.8,68.4,30.06,SSE,159,0.0,0.0,89,0.10,,---,0.25,VWS V14.00,2013-07-07 00:17:00,
2013-07-06 20:24:00,71.5,68.7,30.05,East,85,0.0,0.0,91,0.09,,---,0.25,VWS V14.00,2013-07-07 00:24:00,
2013-07-06 20:29:00,71.3,69.2,30.06,East,83,0.0,0.0,93,0.08,,---,0.25,VWS V14.00,2013-07-07 00:29:00,
2013-07-06 20:35:00,71.1,69.3,30.05,East,84,0.0,0.0,94,0.08,,---,0.25,VWS V14.00,2013-07-07 00:35:00,
2013-07-06 20:41:00,71.0,69.5,30.05,East,84,0.0,0.0,95,0.07,,---,0.25,VWS V14.00,2013-07-07 00:41:00,
2013-07-06 20:46:00,70.8,69.9,30.06,East,85,0.0,0.0,97,0.06,,---,0.25,VWS V14.00,2013-07-07 00:46:00,
2013-07-06 20:52:00,70.7,70.4,30.06,East,84,0.0,0.0,99,0.06,,---,0.25,VWS V14.00,2013-07-07 00:52:00,
2013-07-06 21:00:00,70.6,70.6,30.06,East,85,0.0,0.0,100,0.05,,---,0.25,VWS V14.00,2013-07-07 01:00:00,
2013-07-06 21:05:00,70.6,70.3,30.06,East,85,0.0,0.0,99,0.05,,---,0.25,VWS V14.00,2013-07-07 01:05:00,